createdAt,value
2022-11-03T00:01:48.178Z,92.80
2022-11-03T00:04:50.384Z,92.70
2022-11-03T00:07:52.505Z,92.70
2022-11-03T00:11:01.352Z,92.80
2022-11-03T00:14:04.728Z,92.80
2022-11-03T00:17:06.943Z,92.80
2022-11-03T00:20:10.127Z,92.80
2022-11-03T00:23:12.270Z,92.70
2022-11-03T00:26:15.757Z,92.70
2022-11-03T00:29:18.034Z,92.70
2022-11-03T00:32:20.184Z,92.70
2022-11-03T00:35:22.371Z,92.70
2022-11-03T00:38:24.954Z,92.80
2022-11-03T00:41:27.987Z,92.80
2022-11-03T00:44:30.182Z,92.80
2022-11-03T00:47:32.358Z,92.70
2022-11-03T00:50:34.644Z,92.80
2022-11-03T00:53:46.739Z,92.70
2022-11-03T00:56:48.896Z,92.70
2022-11-03T00:59:51.012Z,92.70
2022-11-03T01:02:53.182Z,92.70
2022-11-03T01:06:14.097Z,92.70
2022-11-03T01:09:30.482Z,92.70
2022-11-03T01:12:32.651Z,92.70
2022-11-03T01:15:34.830Z,92.70
2022-11-03T01:18:36.957Z,92.70
2022-11-03T01:21:39.211Z,92.80
2022-11-03T01:24:42.813Z,92.80
2022-11-03T01:27:44.951Z,92.70
2022-11-03T01:30:47.224Z,92.70
2022-11-03T01:33:54.529Z,92.80
2022-11-03T01:36:56.772Z,92.70
2022-11-03T01:39:59.076Z,92.70
2022-11-03T01:43:29.221Z,92.60
2022-11-03T01:46:31.381Z,92.70
2022-11-03T01:49:39.645Z,92.60
2022-11-03T01:52:50.937Z,92.70
2022-11-03T01:55:56.459Z,92.70
2022-11-03T01:58:58.850Z,92.70
2022-11-03T02:02:01.344Z,92.60
2022-11-03T02:05:05.297Z,92.70
2022-11-03T02:08:26.089Z,92.70
2022-11-03T02:11:47.066Z,92.70
2022-11-03T02:15:10.612Z,92.60
2022-11-03T02:18:13.309Z,92.70
2022-11-03T02:21:41.007Z,92.60
2022-11-03T02:24:43.132Z,92.60
2022-11-03T02:27:45.876Z,92.60
2022-11-03T02:30:48.284Z,92.70
2022-11-03T02:34:08.589Z,92.60
2022-11-03T02:37:21.030Z,92.70
2022-11-03T02:40:29.918Z,92.60
2022-11-03T02:43:32.190Z,92.70
2022-11-03T02:46:36.215Z,92.60
2022-11-03T02:49:57.071Z,92.60
2022-11-03T02:52:59.564Z,92.60
2022-11-03T02:56:13.807Z,92.60
2022-11-03T02:59:21.686Z,92.60
2022-11-03T03:02:36.142Z,92.60
2022-11-03T03:05:42.424Z,92.60
2022-11-03T03:08:49.720Z,92.60
2022-11-03T03:11:55.537Z,92.60
2022-11-03T03:14:59.702Z,92.60
2022-11-03T03:18:30.068Z,92.60
2022-11-03T03:21:37.712Z,92.60
2022-11-03T03:24:56.100Z,92.60
2022-11-03T03:28:16.069Z,92.60
2022-11-03T03:31:20.613Z,92.60
2022-11-03T03:34:34.745Z,92.60
2022-11-03T03:37:42.390Z,92.60
2022-11-03T03:40:46.696Z,92.60
2022-11-03T03:43:54.658Z,92.60
2022-11-03T03:47:04.010Z,92.60
2022-11-03T03:50:06.759Z,92.50
2022-11-03T03:53:12.104Z,92.60
2022-11-03T03:56:14.792Z,92.60
2022-11-03T03:59:17.025Z,92.50
2022-11-03T04:02:19.526Z,92.50
2022-11-03T04:05:21.765Z,92.50
2022-11-03T04:08:24.063Z,92.50
2022-11-03T04:11:44.984Z,92.50
2022-11-03T04:15:05.487Z,92.50
2022-11-03T04:18:26.580Z,92.60
2022-11-03T04:21:47.501Z,92.50
2022-11-03T04:24:51.461Z,92.60
2022-11-03T04:27:53.611Z,92.50
2022-11-03T04:30:59.970Z,92.50
2022-11-03T04:34:05.160Z,92.50
2022-11-03T04:37:12.337Z,92.50
2022-11-03T04:40:18.256Z,92.50
2022-11-03T04:43:21.846Z,92.60
2022-11-03T04:46:29.394Z,92.60
2022-11-03T04:49:31.531Z,92.50
2022-11-03T04:52:33.763Z,92.50
2022-11-03T04:55:35.936Z,92.50
2022-11-03T04:58:38.088Z,92.50
2022-11-03T05:01:40.689Z,92.50
2022-11-03T05:04:43.783Z,92.50
2022-11-03T05:07:50.049Z,92.50
2022-11-03T05:10:52.724Z,92.50
2022-11-03T05:14:03.116Z,92.50
2022-11-03T05:17:18.134Z,92.50
2022-11-03T05:20:36.290Z,92.50
2022-11-03T05:23:46.512Z,92.50
2022-11-03T05:26:49.681Z,92.60
2022-11-03T05:29:57.860Z,92.50
2022-11-03T05:33:02.805Z,92.50
2022-11-03T05:36:20.201Z,92.50
2022-11-03T05:39:32.367Z,92.50
2022-11-03T05:42:41.925Z,92.50
2022-11-03T05:45:44.482Z,92.50
2022-11-03T05:48:46.986Z,92.50
2022-11-03T05:51:49.789Z,92.60
2022-11-03T05:54:53.857Z,92.50
2022-11-03T05:57:58.832Z,92.60
2022-11-03T06:01:05.181Z,92.50
2022-11-03T06:04:20.635Z,92.50
2022-11-03T06:07:28.657Z,92.50
2022-11-03T06:10:45.348Z,92.60
2022-11-03T06:13:47.545Z,92.60
2022-11-03T06:16:58.954Z,92.50
2022-11-03T06:20:01.172Z,92.60
2022-11-03T06:23:03.473Z,92.60
2022-11-03T06:26:22.322Z,92.60
2022-11-03T06:29:24.654Z,92.50
2022-11-03T06:32:28.005Z,92.60
2022-11-03T06:35:30.353Z,92.60
2022-11-03T06:38:35.515Z,92.60
2022-11-03T06:41:37.786Z,92.60
2022-11-03T06:44:42.932Z,92.60
2022-11-03T06:47:45.124Z,92.60
2022-11-03T06:50:47.398Z,92.60
2022-11-03T06:53:53.968Z,92.50
2022-11-03T06:56:56.177Z,92.60
2022-11-03T07:00:13.362Z,92.60
2022-11-03T07:03:31.529Z,92.60
2022-11-03T07:06:36.788Z,92.60
2022-11-03T07:09:39.321Z,92.60
2022-11-03T07:12:42.775Z,92.60
2022-11-03T07:15:45.897Z,92.60
2022-11-03T07:18:48.295Z,92.60
2022-11-03T07:21:56.743Z,92.70
2022-11-03T07:25:03.629Z,92.70
2022-11-03T07:28:06.620Z,92.70
2022-11-03T07:31:20.483Z,92.70
2022-11-03T07:34:26.493Z,92.70
2022-11-03T07:37:28.675Z,92.70
2022-11-03T07:40:34.655Z,92.70
2022-11-03T07:43:38.471Z,92.70
2022-11-03T07:46:40.715Z,92.80
2022-11-03T07:49:43.018Z,92.70
2022-11-03T07:52:45.186Z,92.70
2022-11-03T07:55:47.878Z,92.80
2022-11-03T07:58:55.780Z,92.80
2022-11-03T08:01:58.931Z,92.80
2022-11-03T08:05:02.060Z,92.80
2022-11-03T08:08:04.595Z,92.70
2022-11-03T08:11:07.284Z,92.90
2022-11-03T08:14:12.541Z,92.80
2022-11-03T08:17:15.621Z,92.90
2022-11-03T08:20:17.778Z,92.90
2022-11-03T08:23:25.645Z,92.80
2022-11-03T08:26:28.954Z,92.80
2022-11-03T08:29:31.230Z,92.80
2022-11-03T08:32:33.366Z,92.90
2022-11-03T08:35:35.660Z,92.90
2022-11-03T08:38:38.201Z,92.90
2022-11-03T08:41:40.840Z,92.90
2022-11-03T08:44:43.002Z,92.90
2022-11-03T08:47:45.154Z,92.90
2022-11-03T08:50:49.538Z,92.90
2022-11-03T08:53:54.216Z,92.90
2022-11-03T08:56:56.411Z,92.90
2022-11-03T08:59:59.070Z,92.90
2022-11-03T09:03:01.255Z,93.00
2022-11-03T09:06:03.518Z,92.90
2022-11-03T09:12:27.809Z,92.90
2022-11-03T09:15:30.845Z,92.90
2022-11-03T09:18:34.162Z,92.90
2022-11-03T09:21:36.350Z,92.90
2022-11-03T09:24:38.465Z,92.90
2022-11-03T09:27:40.597Z,92.90
2022-11-03T09:30:42.802Z,92.90
2022-11-03T09:33:45.480Z,92.90
2022-11-03T09:36:52.962Z,93.00
2022-11-03T09:39:55.785Z,92.90
2022-11-03T09:42:58.777Z,93.00
2022-11-03T09:46:01.074Z,93.00
2022-11-03T09:49:05.171Z,93.00
2022-11-03T09:52:07.430Z,93.00
2022-11-03T09:55:19.199Z,93.00
2022-11-03T09:58:21.880Z,93.10
2022-11-03T10:01:24.309Z,93.00
2022-11-03T10:04:28.698Z,93.00
2022-11-03T10:07:31.443Z,93.00
2022-11-03T10:10:35.444Z,93.00
2022-11-03T10:13:43.977Z,93.00
2022-11-03T10:16:56.282Z,93.10
2022-11-03T10:19:58.782Z,93.10
2022-11-03T10:23:00.882Z,93.00
2022-11-03T10:26:16.602Z,93.10
2022-11-03T10:29:28.845Z,93.10
2022-11-03T10:32:34.410Z,93.10
2022-11-03T10:35:36.848Z,93.10
2022-11-03T10:38:39.014Z,93.10
2022-11-03T10:41:56.501Z,93.10
2022-11-03T10:45:18.516Z,93.00
2022-11-03T10:48:20.660Z,93.00
2022-11-03T10:51:22.916Z,93.10
2022-11-03T10:54:25.454Z,93.00
2022-11-03T10:57:28.646Z,93.00
2022-11-03T11:00:30.851Z,93.00
2022-11-03T11:03:35.170Z,93.00
2022-11-03T11:06:37.383Z,93.00
2022-11-03T11:09:39.660Z,93.00
2022-11-03T11:13:05.754Z,93.10
2022-11-03T11:16:46.304Z,93.00
2022-11-03T11:20:21.501Z,93.00
2022-11-03T11:23:29.870Z,93.00
2022-11-03T11:26:35.713Z,93.00
2022-11-03T11:29:37.832Z,93.00
2022-11-03T11:32:39.945Z,93.00
2022-11-03T11:35:42.007Z,93.00
2022-11-03T11:38:57.455Z,93.30
2022-11-03T11:42:22.571Z,93.00
2022-11-03T11:46:02.465Z,93.00
2022-11-03T11:49:04.538Z,93.00
2022-11-03T11:52:10.557Z,92.90
2022-11-03T11:55:38.182Z,92.90
2022-11-03T11:58:50.810Z,93.00
2022-11-03T12:01:56.169Z,93.00
2022-11-03T12:05:01.356Z,92.90
2022-11-03T12:08:17.744Z,92.90
2022-11-03T12:11:45.917Z,93.00
2022-11-03T12:14:49.289Z,92.90
2022-11-03T12:17:51.427Z,92.90
2022-11-03T12:20:53.576Z,92.90
2022-11-03T12:23:55.736Z,92.90
2022-11-03T12:26:58.615Z,93.20
2022-11-03T12:30:03.983Z,92.90
2022-11-03T12:33:06.338Z,92.90
2022-11-03T12:36:09.158Z,92.90
2022-11-03T12:39:12.341Z,92.90
2022-11-03T12:42:14.475Z,92.90
2022-11-03T12:45:16.700Z,92.90
2022-11-03T12:48:19.820Z,92.90
2022-11-03T12:51:24.231Z,92.90
2022-11-03T12:54:26.449Z,92.90
2022-11-03T12:57:28.654Z,92.80
2022-11-03T13:00:30.896Z,92.90
2022-11-03T13:03:34.650Z,92.90
2022-11-03T13:06:36.902Z,92.90
2022-11-03T13:09:39.375Z,92.90
2022-11-03T13:12:41.765Z,92.90
2022-11-03T13:15:44.006Z,92.90
2022-11-03T13:18:46.228Z,92.90
2022-11-03T13:21:48.428Z,93.10
2022-11-03T13:24:50.677Z,92.80
2022-11-03T13:27:56.088Z,92.80
2022-11-03T13:30:58.214Z,92.80
2022-11-03T13:34:00.664Z,92.80
2022-11-03T13:37:02.919Z,92.80
2022-11-03T13:40:06.167Z,92.80
2022-11-03T13:43:08.674Z,92.90
2022-11-03T13:46:13.030Z,92.80
2022-11-03T13:52:37.991Z,92.80
2022-11-03T14:05:28.357Z,92.80
2022-11-03T14:08:30.510Z,92.70
2022-11-03T14:11:51.574Z,92.70
2022-11-03T14:14:53.708Z,92.70
2022-11-03T14:17:55.838Z,92.70
2022-11-03T14:20:57.957Z,92.70
2022-11-03T14:24:00.116Z,92.70
2022-11-03T14:27:02.257Z,92.70
2022-11-03T14:30:05.331Z,92.70
2022-11-03T14:33:07.609Z,92.70
2022-11-03T14:36:09.973Z,92.70
2022-11-03T14:39:12.323Z,92.70
2022-11-03T14:42:17.491Z,92.70
2022-11-03T14:45:19.579Z,93.00
2022-11-03T14:48:21.918Z,92.60
2022-11-03T14:51:24.188Z,92.60
2022-11-03T14:54:26.814Z,92.70
2022-11-03T14:57:28.963Z,92.80
2022-11-03T15:00:31.116Z,93.00
2022-11-03T15:03:33.260Z,93.20
2022-11-03T15:06:36.123Z,93.30
2022-11-03T15:09:38.386Z,93.40
2022-11-03T15:12:40.490Z,93.40
2022-11-03T15:15:42.906Z,93.50
2022-11-03T15:18:45.302Z,93.50
2022-11-03T15:21:47.557Z,93.80
2022-11-03T15:28:11.924Z,94.00
2022-11-03T15:31:14.266Z,94.00
2022-11-03T15:34:16.785Z,94.00
2022-11-03T15:37:19.053Z,94.00
2022-11-03T15:40:21.315Z,93.90
2022-11-03T15:43:23.474Z,93.90
2022-11-03T15:46:26.094Z,93.90
2022-11-03T15:49:28.689Z,93.90
2022-11-03T15:52:30.879Z,93.90
2022-11-03T15:55:33.134Z,93.80
2022-11-03T15:58:35.351Z,93.80
2022-11-03T16:01:37.540Z,93.80
2022-11-03T16:04:39.727Z,93.80
2022-11-03T16:07:41.917Z,93.70
2022-11-03T16:10:50.557Z,93.70
2022-11-03T16:13:55.629Z,93.70
2022-11-03T16:16:57.967Z,94.00
2022-11-03T16:20:00.232Z,93.60
2022-11-03T16:23:02.460Z,93.60
2022-11-03T16:26:05.700Z,93.60
2022-11-03T16:29:07.977Z,93.60
2022-11-03T16:32:10.089Z,93.60
2022-11-03T16:35:12.174Z,93.60
2022-11-03T16:38:15.547Z,93.60
2022-11-03T16:41:17.905Z,93.60
2022-11-03T16:44:20.029Z,93.60
2022-11-03T16:47:22.445Z,93.50
2022-11-03T16:50:24.651Z,93.60
2022-11-03T16:53:26.948Z,93.50
2022-11-03T16:56:29.234Z,93.60
2022-11-03T16:59:31.380Z,93.50
2022-11-03T17:02:33.624Z,93.50
2022-11-03T17:05:36.031Z,93.50
2022-11-03T17:08:52.225Z,93.50
2022-11-03T17:11:55.262Z,93.50
2022-11-03T17:14:57.683Z,93.50
2022-11-03T17:18:00.156Z,93.50
2022-11-03T17:21:02.242Z,93.50
2022-11-03T17:24:06.755Z,93.50
2022-11-03T17:27:46.242Z,93.50
2022-11-03T17:30:48.440Z,93.50
2022-11-03T17:33:50.870Z,93.40
2022-11-03T17:36:53.264Z,93.50
2022-11-03T17:39:56.837Z,93.50
2022-11-03T17:42:59.042Z,93.50
2022-11-03T17:46:01.240Z,93.40
2022-11-03T17:49:03.634Z,93.40
2022-11-03T17:52:06.859Z,93.50
2022-11-03T17:55:21.732Z,93.50
2022-11-03T17:58:32.106Z,93.50
2022-11-03T18:01:34.449Z,93.40
2022-11-03T18:04:37.222Z,93.40
2022-11-03T18:07:39.437Z,93.40
2022-11-03T18:10:44.561Z,93.40
2022-11-03T18:13:48.390Z,93.40
2022-11-03T18:16:51.958Z,93.40
2022-11-03T18:19:54.191Z,93.40
2022-11-03T18:23:17.245Z,93.40
2022-11-03T18:26:21.965Z,93.40
2022-11-03T18:29:24.192Z,93.40
2022-11-03T18:32:27.243Z,93.40
2022-11-03T18:35:33.313Z,93.40
2022-11-03T18:38:37.308Z,93.50
2022-11-03T18:41:40.486Z,93.40
2022-11-03T18:44:43.167Z,93.40
2022-11-03T18:47:45.402Z,93.40
2022-11-03T18:50:52.123Z,93.50
2022-11-03T18:53:54.623Z,93.40
2022-11-03T18:56:57.317Z,93.40
2022-11-03T18:59:59.476Z,93.40
2022-11-03T19:03:01.612Z,93.40
2022-11-03T19:06:05.271Z,93.40
2022-11-03T19:09:07.733Z,93.40
2022-11-03T19:12:14.148Z,93.40
2022-11-03T19:15:21.377Z,93.40
2022-11-03T19:18:25.018Z,93.40
2022-11-03T19:21:28.393Z,93.40
2022-11-03T19:24:30.613Z,93.40
2022-11-03T19:27:34.342Z,93.40
2022-11-03T19:30:37.296Z,93.40
2022-11-03T19:33:39.710Z,93.40
2022-11-03T19:36:43.142Z,93.50
2022-11-03T19:39:45.554Z,93.50
2022-11-03T19:42:48.874Z,93.50
2022-11-03T19:45:51.141Z,93.50
2022-11-03T19:48:53.526Z,93.40
2022-11-03T19:51:56.195Z,93.50
2022-11-03T19:55:00.897Z,93.40
2022-11-03T19:58:13.133Z,93.50
2022-11-03T20:01:16.191Z,93.50
2022-11-03T20:04:18.537Z,93.50
2022-11-03T20:07:20.770Z,93.50
2022-11-03T20:10:22.992Z,93.50
2022-11-03T20:13:28.977Z,93.50
2022-11-03T20:16:31.591Z,93.50
2022-11-03T20:19:33.720Z,93.50
2022-11-03T20:22:35.949Z,93.50
2022-11-03T20:25:38.121Z,93.50
2022-11-03T20:28:40.328Z,93.50
2022-11-03T20:31:44.116Z,93.40
2022-11-03T20:34:46.880Z,93.50
2022-11-03T20:37:51.216Z,93.50
2022-11-03T20:40:58.770Z,93.50
2022-11-03T20:44:01.069Z,93.50
2022-11-03T20:47:04.266Z,93.50
2022-11-03T20:50:07.414Z,93.50
2022-11-03T20:53:17.270Z,93.50
2022-11-03T20:56:25.454Z,93.50
2022-11-03T20:59:30.138Z,93.60
2022-11-03T21:02:33.367Z,93.50
2022-11-03T21:05:36.752Z,93.50
2022-11-03T21:08:39.294Z,93.50
2022-11-03T21:11:43.538Z,93.50
2022-11-03T21:15:05.592Z,93.50
2022-11-03T21:18:46.270Z,93.50
2022-11-03T21:21:48.416Z,93.60
2022-11-03T21:24:50.823Z,93.50
2022-11-03T21:27:54.395Z,93.50
2022-11-03T21:30:57.062Z,93.50
2022-11-03T21:33:59.708Z,93.50
2022-11-03T21:37:02.399Z,93.50
2022-11-03T21:40:05.139Z,93.60
2022-11-03T21:43:29.774Z,93.50
2022-11-03T21:46:31.936Z,93.60
2022-11-03T21:49:42.991Z,93.60
2022-11-03T21:52:45.572Z,93.60
2022-11-03T21:55:49.500Z,93.60
2022-11-03T21:58:51.608Z,93.60
2022-11-03T22:01:55.241Z,93.60
2022-11-03T22:04:58.121Z,93.60
2022-11-03T22:08:00.305Z,93.60
2022-11-03T22:11:21.965Z,93.70
2022-11-03T22:14:26.678Z,93.70
2022-11-03T22:17:28.845Z,93.70
2022-11-03T22:20:49.624Z,93.80
2022-11-03T22:24:10.456Z,93.80
2022-11-03T22:27:13.209Z,93.70
2022-11-03T22:30:33.820Z,93.70
2022-11-03T22:33:55.990Z,93.70
2022-11-03T22:36:58.189Z,93.70
2022-11-03T22:40:19.148Z,93.70
2022-11-03T22:43:40.921Z,93.80
2022-11-03T22:46:43.048Z,93.70
2022-11-03T22:49:45.176Z,93.70
2022-11-03T22:52:47.263Z,93.70
2022-11-03T22:55:49.406Z,93.70
2022-11-03T22:58:52.125Z,93.80
2022-11-03T23:01:54.417Z,93.80
2022-11-03T23:04:56.647Z,93.80
2022-11-03T23:07:58.796Z,93.70
2022-11-03T23:11:16.233Z,93.80
2022-11-03T23:14:18.614Z,93.80
2022-11-03T23:17:40.861Z,93.80
2022-11-03T23:21:01.628Z,93.80
2022-11-03T23:24:22.669Z,93.80
2022-11-03T23:27:24.857Z,93.80
2022-11-03T23:30:27.123Z,93.80
2022-11-03T23:33:30.399Z,93.70
2022-11-03T23:36:32.855Z,93.80
2022-11-03T23:39:34.958Z,93.80
2022-11-03T23:42:37.198Z,93.80
2022-11-03T23:45:58.005Z,93.80
2022-11-03T23:49:00.297Z,93.80
2022-11-03T23:52:02.424Z,93.80
2022-11-03T23:55:04.992Z,93.80
2022-11-03T23:58:19.098Z,93.80
